Terminal Aerodrome Forecast
Issued by NWS Detroit/Pontiac, MI

Home | Current Version | Previous Version | Text Only | Print | Product List | Glossary On
Versions: 1 2 3 4 5 6 7 8 9 10 11 12 13 14 15 16 17 18 19 20 21 22 23 24 25 26 27 28 29
000
FTUS43 KDTX 241700
TAFDTW
TAF
KDTW 241720Z 2418/2524 12010G18KT P6SM SCT080 BKN110
     FM250100 11009KT P6SM BKN080
     FM251200 09007KT 5SM -RA BKN050 OVC100
     FM251400 07008KT 3SM RA BR BKN012 OVC025
     FM251800 32012KT P6SM SCT025 BKN035=

USA.gov is the U.S. government's official web portal to all federal, state and local government web resources and services.